Time;durP1;ratioP1;P1;durP2;ratioP2;P2;SDS_P1;SDS_P2;PMS_P1;PMS_P2;Temp;Humidity;BMP_temperature;BMP_pressure;BME280_temperature;BME280_humidity;BME280_pressure;Samples;Min_cycle;Max_cycle;Signal;HPM_P1;HPM_P2
2022/01/24 00:01:57;;;;;;;0.77;0.77;;;;;;;;;;5024173;28;20207;-63
2022/01/24 00:04:25;;;;;;;0.40;0.40;;;;;;;;;;5021773;28;20750;-62
2022/01/24 00:06:52;;;;;;;1.27;1.10;;;;;;;;;;5021238;28;20258;-62
2022/01/24 00:09:19;;;;;;;0.73;0.73;;;;;;;;;;5019377;28;20201;-63
2022/01/24 00:11:58;;;;;;;1.30;1.20;;;;;;;;;;5022423;28;20223;-63
2022/01/24 00:17:17;;;;;;;0.97;0.40;;;;;;;;;;5024327;28;20214;-62
2022/01/24 00:27:59;;;;;;;0.47;0.47;;;;;;;;;;5021256;28;20219;-62
2022/01/24 00:30:27;;;;;;;0.53;0.53;;;;;;;;;;5021127;28;20219;-62
2022/01/24 00:32:54;;;;;;;0.67;0.50;;;;;;;;;;5020614;28;20212;-62
2022/01/24 00:35:21;;;;;;;0.63;0.43;;;;;;;;;;5021765;28;20640;-62
2022/01/24 00:37:48;;;;;;;4.90;1.20;;;;;;;;;;5020739;28;20219;-62
2022/01/24 00:40:15;;;;;;;1.07;1.07;;;;;;;;;;5020991;28;20674;-62
2022/01/24 00:42:52;;;;;;;1.60;0.60;;;;;;;;;;5019616;28;20208;-62
2022/01/24 00:45:29;;;;;;;0.87;0.40;;;;;;;;;;5018846;28;20305;-62
2022/01/24 00:53:49;;;;;;;0.40;0.40;;;;;;;;;;5022245;28;20299;-62
2022/01/24 00:56:16;;;;;;;0.47;0.47;;;;;;;;;;5020785;28;20688;-62
2022/01/24 00:58:43;;;;;;;0.30;0.30;;;;;;;;;;5022836;28;20270;-63
2022/01/24 01:01:10;;;;;;;0.50;0.50;;;;;;;;;;5021354;28;20628;-62
2022/01/24 01:03:39;;;;;;;0.30;0.30;;;;;;;;;;5021030;28;20291;-63
2022/01/24 01:06:07;;;;;;;0.50;0.50;;;;;;;;;;5020327;28;20230;-61
2022/01/24 01:19:37;;;;;;;0.43;0.43;;;;;;;;;;5022784;28;20243;-62
2022/01/24 01:22:04;;;;;;;0.40;0.40;;;;;;;;;;5025352;28;20210;-62
2022/01/24 01:24:36;;;;;;;0.40;0.40;;;;;;;;;;5027096;28;20212;-62
2022/01/24 01:27:08;;;;;;;0.47;0.47;;;;;;;;;;5028594;28;20257;-62
2022/01/24 01:29:46;;;;;;;0.40;0.40;;;;;;;;;;5026384;28;20631;-62
2022/01/24 01:32:19;;;;;;;0.57;0.57;;;;;;;;;;5025321;28;20674;-62
2022/01/24 01:54:28;;;;;;;0.37;0.30;;;;;;;;;;5025894;28;20675;-65
2022/01/24 01:56:55;;;;;;;0.20;0.20;;;;;;;;;;5026001;28;20218;-63
2022/01/24 01:59:22;;;;;;;0.37;0.37;;;;;;;;;;5023847;28;20275;-62
2022/01/24 02:01:49;;;;;;;0.30;0.30;;;;;;;;;;5025193;28;20215;-62
2022/01/24 02:04:17;;;;;;;0.70;0.50;;;;;;;;;;5025069;28;20215;-62
2022/01/24 02:06:45;;;;;;;0.33;0.33;;;;;;;;;;5025900;28;20203;-63
2022/01/24 02:09:14;;;;;;;0.40;0.40;;;;;;;;;;5026054;28;20278;-62
2022/01/24 02:11:41;;;;;;;1.33;0.30;;;;;;;;;;5024560;28;20577;-62
2022/01/24 02:14:11;;;;;;;0.50;0.50;;;;;;;;;;5025804;28;20219;-62
2022/01/24 02:16:45;;;;;;;1.33;0.40;;;;;;;;;;5025932;28;20212;-61
2022/01/24 02:19:24;;;;;;;0.40;0.40;;;;;;;;;;5026132;28;20238;-61
2022/01/24 02:22:17;;;;;;;1.60;0.50;;;;;;;;;;5024678;28;20215;-62
2022/01/24 02:24:54;;;;;;;0.40;0.40;;;;;;;;;;5024077;28;20219;-63
2022/01/24 02:27:22;;;;;;;0.23;0.23;;;;;;;;;;5026343;28;20302;-61
2022/01/24 02:29:55;;;;;;;0.40;0.40;;;;;;;;;;5025728;28;20212;-62
2022/01/24 02:32:22;;;;;;;0.43;0.43;;;;;;;;;;5024666;28;20706;-62
2022/01/24 02:34:50;;;;;;;0.60;0.60;;;;;;;;;;5024492;28;20243;-62
2022/01/24 02:37:20;;;;;;;0.40;0.40;;;;;;;;;;5024721;28;20216;-61
2022/01/24 02:39:53;;;;;;;1.70;0.50;;;;;;;;;;5025813;28;20707;-62
2022/01/24 02:53:22;;;;;;;0.20;0.20;;;;;;;;;;5024181;28;20726;-62
2022/01/24 02:55:49;;;;;;;0.40;0.40;;;;;;;;;;5024140;28;20588;-62
2022/01/24 02:58:17;;;;;;;0.40;0.40;;;;;;;;;;5024416;28;20200;-62
2022/01/24 03:00:45;;;;;;;0.30;0.30;;;;;;;;;;5026716;28;20204;-61
2022/01/24 03:03:12;;;;;;;0.40;0.40;;;;;;;;;;5024540;28;20292;-61
2022/01/24 03:05:39;;;;;;;0.60;0.37;;;;;;;;;;5024653;28;20223;-62
2022/01/24 03:08:07;;;;;;;0.50;0.50;;;;;;;;;;5023623;28;20206;-61
2022/01/24 03:10:39;;;;;;;0.77;0.67;;;;;;;;;;5024490;28;20239;-61
2022/01/24 03:13:21;;;;;;;0.60;0.60;;;;;;;;;;5025717;28;20197;-62
2022/01/24 03:16:12;;;;;;;0.30;0.30;;;;;;;;;;5024414;28;20204;-62
2022/01/24 03:18:39;;;;;;;0.37;0.37;;;;;;;;;;5003963;28;20208;-62
2022/01/24 03:21:06;;;;;;;0.50;0.50;;;;;;;;;;5023798;28;20214;-62
2022/01/24 03:23:33;;;;;;;0.50;0.50;;;;;;;;;;5024472;28;20208;-62
2022/01/24 03:26:01;;;;;;;0.40;0.40;;;;;;;;;;5023964;28;20209;-62
2022/01/24 03:28:29;;;;;;;1.10;0.40;;;;;;;;;;5023334;28;20204;-62
2022/01/24 03:30:56;;;;;;;0.30;0.30;;;;;;;;;;5023569;28;20203;-62
2022/01/24 03:33:23;;;;;;;0.33;0.30;;;;;;;;;;5025492;28;20216;-62
2022/01/24 03:35:50;;;;;;;1.27;0.40;;;;;;;;;;5026244;28;21012;-62
2022/01/24 03:38:17;;;;;;;0.50;0.50;;;;;;;;;;5025281;28;20213;-62
2022/01/24 03:40:44;;;;;;;0.53;0.30;;;;;;;;;;5023767;28;20210;-62
2022/01/24 03:43:13;;;;;;;0.50;0.30;;;;;;;;;;5025842;28;20232;-62
2022/01/24 03:45:43;;;;;;;0.30;0.30;;;;;;;;;;5023533;28;20218;-62
2022/01/24 03:48:25;;;;;;;0.30;0.30;;;;;;;;;;5023484;28;20295;-62
2022/01/24 03:50:52;;;;;;;0.40;0.40;;;;;;;;;;5023830;28;20714;-62
2022/01/24 03:53:20;;;;;;;0.20;0.20;;;;;;;;;;5024762;28;20343;-62
2022/01/24 03:55:47;;;;;;;0.20;0.20;;;;;;;;;;5024533;28;20208;-62
2022/01/24 03:58:15;;;;;;;0.60;0.60;;;;;;;;;;5023436;28;20242;-62
2022/01/24 04:00:42;;;;;;;0.30;0.30;;;;;;;;;;5023163;28;20203;-62
2022/01/24 04:03:10;;;;;;;0.37;0.37;;;;;;;;;;5023498;28;20208;-63
2022/01/24 04:05:37;;;;;;;0.33;0.33;;;;;;;;;;5021212;28;20239;-64
2022/01/24 04:08:04;;;;;;;0.33;0.27;;;;;;;;;;5023629;28;20204;-62
2022/01/24 04:10:40;;;;;;;0.40;0.40;;;;;;;;;;5023048;28;20207;-62
2022/01/24 04:13:20;;;;;;;0.73;0.33;;;;;;;;;;5023026;28;20223;-62
2022/01/24 04:15:59;;;;;;;0.23;0.23;;;;;;;;;;5024825;28;20291;-62
2022/01/24 04:18:37;;;;;;;0.40;0.40;;;;;;;;;;5023159;28;20204;-62
2022/01/24 04:21:22;;;;;;;1.13;0.43;;;;;;;;;;5023097;28;20718;-61
2022/01/24 04:23:55;;;;;;;0.40;0.40;;;;;;;;;;5023370;28;20196;-62
2022/01/24 04:26:22;;;;;;;0.33;0.33;;;;;;;;;;5024548;28;20222;-62
2022/01/24 04:28:49;;;;;;;0.30;0.30;;;;;;;;;;5023761;28;20215;-63
2022/01/24 04:31:18;;;;;;;0.30;0.30;;;;;;;;;;5022894;28;20211;-62
2022/01/24 04:33:45;;;;;;;0.20;0.20;;;;;;;;;;5022626;28;20236;-62
2022/01/24 04:36:12;;;;;;;0.20;0.20;;;;;;;;;;5024021;28;20278;-62
2022/01/24 04:38:39;;;;;;;0.23;0.23;;;;;;;;;;5023126;28;20643;-62
2022/01/24 04:41:14;;;;;;;0.23;0.23;;;;;;;;;;5024041;28;20211;-62
2022/01/24 04:43:55;;;;;;;0.47;0.47;;;;;;;;;;5026742;28;20199;-62
2022/01/24 04:46:50;;;;;;;0.63;0.50;;;;;;;;;;5028144;28;20319;-62
2022/01/24 04:52:16;;;;;;;0.30;0.30;;;;;;;;;;5026848;28;20261;-63
2022/01/24 04:54:44;;;;;;;0.20;0.20;;;;;;;;;;5026996;28;20227;-62
2022/01/24 04:57:12;;;;;;;0.40;0.40;;;;;;;;;;5027654;28;20223;-62
2022/01/24 04:59:40;;;;;;;0.33;0.20;;;;;;;;;;5026862;28;20231;-62
2022/01/24 05:02:09;;;;;;;0.30;0.30;;;;;;;;;;5026698;28;20258;-62
2022/01/24 05:04:36;;;;;;;0.30;0.20;;;;;;;;;;5026818;28;20207;-62
2022/01/24 05:07:06;;;;;;;0.30;0.30;;;;;;;;;;5027616;28;20204;-63
2022/01/24 05:09:37;;;;;;;0.30;0.30;;;;;;;;;;5026535;28;20208;-62
2022/01/24 05:12:10;;;;;;;0.40;0.40;;;;;;;;;;5026525;28;20257;-62
2022/01/24 05:25:46;;;;;;;0.10;0.10;;;;;;;;;;5026119;28;20995;-62
2022/01/24 05:28:13;;;;;;;0.30;0.30;;;;;;;;;;5026572;28;20619;-61
2022/01/24 05:30:40;;;;;;;0.53;0.53;;;;;;;;;;5024162;28;20216;-62
2022/01/24 05:33:09;;;;;;;0.33;0.33;;;;;;;;;;5026328;28;20223;-61
2022/01/24 05:35:36;;;;;;;0.40;0.40;;;;;;;;;;5022637;28;20232;-62
2022/01/24 05:38:03;;;;;;;0.23;0.23;;;;;;;;;;5026813;28;20292;-62
2022/01/24 05:40:30;;;;;;;0.40;0.40;;;;;;;;;;5023215;28;20231;-61
2022/01/24 05:42:57;;;;;;;0.50;0.50;;;;;;;;;;5023132;28;20846;-61
2022/01/24 05:45:24;;;;;;;0.50;0.50;;;;;;;;;;5022751;28;20200;-61
2022/01/24 05:47:51;;;;;;;0.50;0.50;;;;;;;;;;5025700;28;20728;-62
2022/01/24 05:50:20;;;;;;;0.30;0.30;;;;;;;;;;5023024;28;20248;-62
2022/01/24 05:52:47;;;;;;;1.50;0.30;;;;;;;;;;5024047;28;20438;-62
2022/01/24 05:55:14;;;;;;;0.30;0.30;;;;;;;;;;5022889;28;21995;-62
2022/01/24 05:57:41;;;;;;;0.40;0.40;;;;;;;;;;5019389;28;20278;-62
2022/01/24 06:00:09;;;;;;;0.43;0.43;;;;;;;;;;5025345;28;20930;-61
2022/01/24 06:02:36;;;;;;;0.73;0.40;;;;;;;;;;5028181;28;20689;-61
2022/01/24 06:05:03;;;;;;;0.30;0.30;;;;;;;;;;5027517;28;20436;-61
2022/01/24 06:07:31;;;;;;;0.37;0.37;;;;;;;;;;5027478;28;20215;-61
2022/01/24 06:09:58;;;;;;;0.30;0.30;;;;;;;;;;5027181;28;20588;-62
2022/01/24 06:12:26;;;;;;;0.30;0.30;;;;;;;;;;5029179;28;20236;-61
2022/01/24 06:14:53;;;;;;;0.40;0.40;;;;;;;;;;5027333;28;20208;-62
2022/01/24 06:17:20;;;;;;;0.40;0.40;;;;;;;;;;5029227;28;20215;-61
2022/01/24 06:19:47;;;;;;;0.33;0.33;;;;;;;;;;5028966;28;20215;-62
2022/01/24 06:22:14;;;;;;;0.40;0.40;;;;;;;;;;5029594;28;20205;-61
2022/01/24 06:24:43;;;;;;;2.10;0.50;;;;;;;;;;5027830;28;20211;-61
2022/01/24 06:27:10;;;;;;;0.30;0.30;;;;;;;;;;5025688;28;20291;-63
2022/01/24 06:29:37;;;;;;;0.77;0.30;;;;;;;;;;5026386;28;20246;-62
2022/01/24 06:32:04;;;;;;;0.30;0.30;;;;;;;;;;5023312;28;20242;-62
2022/01/24 06:34:31;;;;;;;1.47;0.60;;;;;;;;;;4993821;28;1027462;-62
2022/01/24 06:36:58;;;;;;;0.57;0.57;;;;;;;;;;5029015;28;20262;-61
2022/01/24 06:39:25;;;;;;;0.73;0.73;;;;;;;;;;5029083;28;20212;-64
2022/01/24 06:42:07;;;;;;;1.23;0.80;;;;;;;;;;5029261;28;20752;-62
2022/01/24 06:44:34;;;;;;;0.60;0.60;;;;;;;;;;5011287;28;20212;-62
2022/01/24 06:47:01;;;;;;;0.57;0.57;;;;;;;;;;5029645;28;20251;-62
2022/01/24 06:49:28;;;;;;;0.70;0.70;;;;;;;;;;5030135;28;20671;-60
2022/01/24 06:51:55;;;;;;;0.80;0.80;;;;;;;;;;5029357;28;20207;-60
2022/01/24 06:54:22;;;;;;;0.70;0.70;;;;;;;;;;5028477;28;20239;-60
2022/01/24 06:56:55;;;;;;;1.07;0.90;;;;;;;;;;5029081;28;20204;-60
2022/01/24 06:59:23;;;;;;;0.50;0.50;;;;;;;;;;5028123;28;20257;-60
2022/01/24 07:01:50;;;;;;;0.60;0.60;;;;;;;;;;5029456;28;20204;-61
2022/01/24 07:04:17;;;;;;;0.50;0.50;;;;;;;;;;5028935;28;20218;-61
2022/01/24 07:06:44;;;;;;;1.13;1.10;;;;;;;;;;5030223;28;20210;-61
2022/01/24 07:09:12;;;;;;;0.47;0.47;;;;;;;;;;5029838;28;20205;-61
2022/01/24 07:11:39;;;;;;;1.03;0.90;;;;;;;;;;5030046;28;20742;-61
2022/01/24 07:14:11;;;;;;;1.23;0.83;;;;;;;;;;5029407;28;20637;-61
2022/01/24 07:17:02;;;;;;;0.70;0.70;;;;;;;;;;5029733;28;20215;-61
2022/01/24 07:19:27;;;;;;;0.40;0.40;;;;;;;;;;5029319;28;20201;-61
2022/01/24 07:21:54;;;;;;;0.50;0.50;;;;;;;;;;5026309;28;20268;-61
2022/01/24 07:24:21;;;;;;;0.60;0.60;;;;;;;;;;5029848;28;20773;-61
2022/01/24 07:26:48;;;;;;;0.50;0.50;;;;;;;;;;5029455;28;20262;-61
2022/01/24 07:29:15;;;;;;;0.40;0.30;;;;;;;;;;5029629;28;20219;-60
2022/01/24 07:31:44;;;;;;;1.23;0.80;;;;;;;;;;5029732;28;20208;-60
2022/01/24 07:34:11;;;;;;;0.40;0.40;;;;;;;;;;5029534;28;20236;-59
2022/01/24 07:36:38;;;;;;;0.63;0.50;;;;;;;;;;5029577;28;20219;-60
2022/01/24 07:39:05;;;;;;;0.43;0.43;;;;;;;;;;5029613;28;20570;-60
2022/01/24 07:41:34;;;;;;;0.70;0.70;;;;;;;;;;5029215;28;20631;-60
2022/01/24 07:44:01;;;;;;;1.00;0.80;;;;;;;;;;5029457;28;20204;-59
2022/01/24 07:46:29;;;;;;;0.40;0.40;;;;;;;;;;5027509;28;20210;-60
2022/01/24 07:48:57;;;;;;;1.70;0.60;;;;;;;;;;5029108;28;20239;-59
2022/01/24 07:51:24;;;;;;;0.40;0.40;;;;;;;;;;5018419;28;20286;-59
2022/01/24 07:53:51;;;;;;;0.53;0.53;;;;;;;;;;5028598;28;20634;-60
2022/01/24 07:56:18;;;;;;;0.80;0.47;;;;;;;;;;5028981;28;20212;-61
2022/01/24 07:58:45;;;;;;;0.57;0.57;;;;;;;;;;5024755;28;20739;-60
2022/01/24 08:01:13;;;;;;;0.67;0.67;;;;;;;;;;5028635;28;20557;-60
2022/01/24 08:03:40;;;;;;;3.33;0.87;;;;;;;;;;5029066;28;20211;-60
2022/01/24 08:06:08;;;;;;;1.27;0.70;;;;;;;;;;5029024;28;20208;-60
2022/01/24 08:08:35;;;;;;;1.70;0.73;;;;;;;;;;5029073;28;20207;-62
2022/01/24 08:11:02;;;;;;;0.60;0.60;;;;;;;;;;5028684;28;20207;-60
2022/01/24 08:13:29;;;;;;;0.87;0.53;;;;;;;;;;5028911;28;20228;-59
2022/01/24 08:15:56;;;;;;;0.60;0.60;;;;;;;;;;5022055;28;20208;-61
2022/01/24 08:18:23;;;;;;;0.90;0.70;;;;;;;;;;5028768;28;20242;-61
2022/01/24 08:20:51;;;;;;;1.70;0.73;;;;;;;;;;5027844;28;20210;-61
2022/01/24 08:23:20;;;;;;;0.73;0.73;;;;;;;;;;5028908;28;20241;-61
2022/01/24 08:25:47;;;;;;;0.50;0.50;;;;;;;;;;5029036;28;20243;-61
2022/01/24 08:28:14;;;;;;;2.97;0.80;;;;;;;;;;5028770;28;20273;-61
2022/01/24 08:30:41;;;;;;;0.47;0.47;;;;;;;;;;5028821;28;20204;-61
2022/01/24 08:33:08;;;;;;;0.50;0.50;;;;;;;;;;5029011;28;20244;-61
2022/01/24 08:35:35;;;;;;;0.83;0.60;;;;;;;;;;5028558;28;20239;-61
2022/01/24 08:38:03;;;;;;;0.50;0.50;;;;;;;;;;5028780;28;20235;-62
2022/01/24 08:40:33;;;;;;;0.83;0.83;;;;;;;;;;5028366;28;20235;-61
2022/01/24 08:43:03;;;;;;;5.63;2.87;;;;;;;;;;5028474;28;20258;-62
2022/01/24 08:45:48;;;;;;;1.83;1.47;;;;;;;;;;5028727;28;20239;-61
2022/01/24 08:48:16;;;;;;;6.53;3.77;;;;;;;;;;5028595;28;20212;-61
2022/01/24 08:50:43;;;;;;;13.97;7.73;;;;;;;;;;5028393;28;20220;-61
2022/01/24 08:53:11;;;;;;;22.57;11.57;;;;;;;;;;5028422;28;20235;-61
2022/01/24 08:55:40;;;;;;;18.57;7.37;;;;;;;;;;5028385;28;20212;-61
2022/01/24 08:58:11;;;;;;;46.77;19.37;;;;;;;;;;5028475;28;20269;-61
2022/01/24 09:00:38;;;;;;;8.87;5.17;;;;;;;;;;5028699;28;20267;-61
2022/01/24 09:03:05;;;;;;;6.77;4.03;;;;;;;;;;5028335;28;20269;-61
2022/01/24 09:05:35;;;;;;;10.60;6.27;;;;;;;;;;5008863;28;20706;-61
2022/01/24 09:08:03;;;;;;;17.43;7.77;;;;;;;;;;5022326;28;20584;-61
2022/01/24 09:10:30;;;;;;;5.10;3.77;;;;;;;;;;5028571;28;20664;-62
2022/01/24 09:12:58;;;;;;;4.57;4.17;;;;;;;;;;5028231;28;20232;-61
2022/01/24 09:15:25;;;;;;;1.30;1.30;;;;;;;;;;5028187;28;20255;-61
2022/01/24 09:17:52;;;;;;;2.63;2.43;;;;;;;;;;5028603;28;20216;-61
2022/01/24 09:20:19;;;;;;;0.53;0.53;;;;;;;;;;5028468;28;20266;-61
2022/01/24 09:22:48;;;;;;;1.33;1.10;;;;;;;;;;5025610;28;20212;-60
2022/01/24 09:25:16;;;;;;;1.00;1.00;;;;;;;;;;5027999;28;20296;-63
2022/01/24 09:27:43;;;;;;;1.67;1.67;;;;;;;;;;5029810;28;20287;-62
2022/01/24 09:30:14;;;;;;;1.17;1.17;;;;;;;;;;5031964;28;20853;-61
2022/01/24 09:32:41;;;;;;;0.50;0.50;;;;;;;;;;5031911;28;20269;-61
2022/01/24 09:35:09;;;;;;;1.10;1.10;;;;;;;;;;5031126;28;20244;-61
2022/01/24 09:37:36;;;;;;;0.97;0.97;;;;;;;;;;5030118;28;20208;-61
2022/01/24 09:40:04;;;;;;;0.87;0.87;;;;;;;;;;5032056;28;20239;-61
2022/01/24 09:42:31;;;;;;;1.07;1.07;;;;;;;;;;5031280;28;20205;-61
2022/01/24 09:44:58;;;;;;;1.33;1.20;;;;;;;;;;5030129;28;20207;-62
2022/01/24 09:47:27;;;;;;;0.80;0.80;;;;;;;;;;5019294;28;20201;-61
2022/01/24 09:49:54;;;;;;;0.83;0.83;;;;;;;;;;5031398;28;20243;-61
2022/01/24 09:52:21;;;;;;;0.50;0.50;;;;;;;;;;5031209;28;20294;-61
2022/01/24 09:54:48;;;;;;;0.70;0.70;;;;;;;;;;5031339;28;20289;-62
2022/01/24 09:57:15;;;;;;;0.80;0.80;;;;;;;;;;5031296;28;20596;-62
2022/01/24 09:59:42;;;;;;;0.80;0.80;;;;;;;;;;5031008;28;20273;-62
2022/01/24 10:02:09;;;;;;;0.43;0.43;;;;;;;;;;5030827;28;20212;-61
2022/01/24 10:04:38;;;;;;;1.00;1.00;;;;;;;;;;5030301;28;21176;-61
2022/01/24 10:07:07;;;;;;;0.87;0.87;;;;;;;;;;5030485;28;20293;-61
2022/01/24 10:09:35;;;;;;;0.63;0.63;;;;;;;;;;5030290;28;20605;-61
2022/01/24 10:12:11;;;;;;;0.90;0.90;;;;;;;;;;5030253;28;20270;-64
2022/01/24 10:17:26;;;;;;;0.67;0.67;;;;;;;;;;4952531;29;20253;-61
2022/01/24 10:19:55;;;;;;;0.80;0.80;;;;;;;;;;4954623;28;20666;-61
2022/01/24 10:22:24;;;;;;;1.10;1.00;;;;;;;;;;4971612;28;20226;-61
2022/01/24 10:24:54;;;;;;;2.27;0.90;;;;;;;;;;4971704;28;20639;-61
2022/01/24 10:27:24;;;;;;;0.90;0.90;;;;;;;;;;4971634;28;20639;-61
2022/01/24 10:29:52;;;;;;;4.93;0.70;;;;;;;;;;4971538;28;20241;-62
2022/01/24 10:32:30;;;;;;;3.70;1.13;;;;;;;;;;4971207;28;20699;-62
2022/01/24 10:35:18;;;;;;;0.87;0.87;;;;;;;;;;4983521;28;20380;-62
2022/01/24 10:37:49;;;;;;;0.73;0.73;;;;;;;;;;4991601;28;20226;-62
2022/01/24 10:40:31;;;;;;;0.83;0.83;;;;;;;;;;4984050;28;20210;-62
2022/01/24 10:43:15;;;;;;;1.17;1.13;;;;;;;;;;4971952;28;20281;-61
2022/01/24 10:45:43;;;;;;;1.00;1.00;;;;;;;;;;4972184;28;20217;-61
2022/01/24 10:48:10;;;;;;;0.87;0.87;;;;;;;;;;4971827;28;20309;-62
2022/01/24 10:50:38;;;;;;;0.60;0.60;;;;;;;;;;4971850;28;20890;-61
2022/01/24 10:53:12;;;;;;;1.03;1.03;;;;;;;;;;4971938;28;20240;-61
2022/01/24 10:55:41;;;;;;;0.90;0.90;;;;;;;;;;4971878;28;20224;-62
2022/01/24 10:58:09;;;;;;;1.40;1.30;;;;;;;;;;4985097;28;20321;-61
2022/01/24 11:00:37;;;;;;;0.80;0.80;;;;;;;;;;4991114;28;20213;-62
2022/01/24 11:03:06;;;;;;;0.60;0.60;;;;;;;;;;4989711;28;20214;-61
2022/01/24 11:05:35;;;;;;;1.23;1.03;;;;;;;;;;4971812;28;20214;-62
2022/01/24 11:08:03;;;;;;;1.07;1.07;;;;;;;;;;4971417;28;20210;-61
2022/01/24 11:10:32;;;;;;;3.90;1.00;;;;;;;;;;4971798;28;20351;-61
2022/01/24 11:12:59;;;;;;;3.90;1.40;;;;;;;;;;4971376;28;20225;-61
2022/01/24 11:15:27;;;;;;;2.80;0.87;;;;;;;;;;4971595;28;20222;-60
2022/01/24 11:17:54;;;;;;;4.30;0.80;;;;;;;;;;4971493;28;20273;-60
2022/01/24 11:20:28;;;;;;;1.40;1.13;;;;;;;;;;4971465;28;20700;-61
2022/01/24 11:23:00;;;;;;;2.20;1.80;;;;;;;;;;4987173;28;20217;-60
2022/01/24 11:25:28;;;;;;;0.40;0.40;;;;;;;;;;4987185;28;20292;-60
2022/01/24 11:27:57;;;;;;;0.90;0.90;;;;;;;;;;4982759;28;20206;-61
2022/01/24 11:30:25;;;;;;;0.33;0.33;;;;;;;;;;4987820;28;20210;-61
2022/01/24 11:32:53;;;;;;;1.10;0.50;;;;;;;;;;4985401;28;20214;-61
2022/01/24 11:35:30;;;;;;;0.53;0.53;;;;;;;;;;4985572;28;20237;-61
2022/01/24 11:37:58;;;;;;;0.57;0.57;;;;;;;;;;4990648;28;20221;-60
2022/01/24 11:40:25;;;;;;;0.63;0.53;;;;;;;;;;4971284;28;20309;-60
2022/01/24 11:42:52;;;;;;;2.10;0.87;;;;;;;;;;4971058;28;20665;-60
2022/01/24 11:45:43;;;;;;;0.47;0.47;;;;;;;;;;4969247;28;20264;-62
2022/01/24 11:48:18;;;;;;;0.33;0.33;;;;;;;;;;4970842;28;20218;-61
2022/01/24 11:50:55;;;;;;;0.80;0.80;;;;;;;;;;4975147;28;20232;-64
2022/01/24 11:53:23;;;;;;;0.70;0.67;;;;;;;;;;4990178;28;20209;-62
2022/01/24 11:55:50;;;;;;;2.53;0.47;;;;;;;;;;4990279;28;20264;-62
2022/01/24 11:58:24;;;;;;;0.60;0.60;;;;;;;;;;4988286;28;20224;-62
2022/01/24 12:00:54;;;;;;;0.53;0.53;;;;;;;;;;4989988;28;20214;-62
2022/01/24 12:03:23;;;;;;;0.50;0.50;;;;;;;;;;4990170;28;20236;-62
2022/01/24 12:05:53;;;;;;;1.27;0.53;;;;;;;;;;4989217;28;20212;-62
2022/01/24 12:08:30;;;;;;;0.67;0.67;;;;;;;;;;4990106;28;20303;-62
2022/01/24 12:10:58;;;;;;;0.80;0.80;;;;;;;;;;4978626;28;20211;-62
2022/01/24 12:13:29;;;;;;;2.13;0.67;;;;;;;;;;4970418;28;20210;-62
2022/01/24 12:15:58;;;;;;;6.03;0.97;;;;;;;;;;4969855;28;20669;-61
2022/01/24 12:18:40;;;;;;;0.80;0.60;;;;;;;;;;4990122;28;20218;-62
2022/01/24 12:21:09;;;;;;;0.90;0.90;;;;;;;;;;4989986;28;20205;-62
2022/01/24 12:23:37;;;;;;;1.70;0.63;;;;;;;;;;4989891;28;20275;-61
2022/01/24 12:26:06;;;;;;;0.50;0.50;;;;;;;;;;4989812;28;20217;-61
2022/01/24 12:28:34;;;;;;;0.60;0.60;;;;;;;;;;4989667;28;20221;-61
2022/01/24 12:31:03;;;;;;;0.60;0.60;;;;;;;;;;4989973;28;20217;-61
2022/01/24 12:33:32;;;;;;;0.87;0.53;;;;;;;;;;4989746;28;20228;-62
2022/01/24 12:35:59;;;;;;;0.80;0.80;;;;;;;;;;4988377;28;20672;-61
2022/01/24 12:38:26;;;;;;;0.77;0.77;;;;;;;;;;4989506;28;20579;-61
2022/01/24 12:41:08;;;;;;;0.50;0.50;;;;;;;;;;4989761;28;20740;-63
2022/01/24 12:43:51;;;;;;;0.63;0.63;;;;;;;;;;4989629;28;20703;-63
2022/01/24 12:46:21;;;;;;;0.87;0.87;;;;;;;;;;4989933;28;20213;-63
2022/01/24 12:48:49;;;;;;;0.60;0.60;;;;;;;;;;4989806;28;20752;-63
2022/01/24 12:51:16;;;;;;;0.80;0.80;;;;;;;;;;4989586;28;20343;-62
2022/01/24 12:53:44;;;;;;;1.10;1.10;;;;;;;;;;4989612;28;20213;-63
2022/01/24 12:56:13;;;;;;;0.43;0.43;;;;;;;;;;4989736;28;20640;-62
2022/01/24 12:58:41;;;;;;;0.20;0.20;;;;;;;;;;4989520;28;20221;-61
2022/01/24 13:01:18;;;;;;;1.00;0.83;;;;;;;;;;4989651;28;20770;-61
2022/01/24 13:03:51;;;;;;;0.93;0.67;;;;;;;;;;4993304;28;20281;-62
2022/01/24 13:06:19;;;;;;;0.60;0.60;;;;;;;;;;4993278;28;20217;-62
2022/01/24 13:08:53;;;;;;;0.70;0.70;;;;;;;;;;4993348;28;20213;-62
2022/01/24 13:11:20;;;;;;;0.80;0.80;;;;;;;;;;4986247;28;20202;-62
2022/01/24 13:13:58;;;;;;;0.73;0.60;;;;;;;;;;4986130;28;20210;-62
2022/01/24 13:22:11;;;;;;;0.67;0.67;;;;;;;;;;4993351;28;20572;-62
2022/01/24 13:24:39;;;;;;;0.50;0.50;;;;;;;;;;4993040;28;20210;-62
2022/01/24 13:27:09;;;;;;;0.60;0.60;;;;;;;;;;4993086;28;20209;-61
2022/01/24 13:29:40;;;;;;;0.83;0.83;;;;;;;;;;4992918;28;20276;-62
2022/01/24 13:32:07;;;;;;;1.40;0.90;;;;;;;;;;4993111;28;20214;-62
2022/01/24 13:34:35;;;;;;;0.50;0.50;;;;;;;;;;4984105;28;20246;-63
2022/01/24 13:37:08;;;;;;;3.40;0.80;;;;;;;;;;4973498;28;20257;-61
2022/01/24 13:39:35;;;;;;;1.17;0.97;;;;;;;;;;4973511;28;20225;-61
2022/01/24 13:42:02;;;;;;;1.43;0.77;;;;;;;;;;4973417;28;20637;-61
2022/01/24 13:44:29;;;;;;;1.27;0.90;;;;;;;;;;4972974;28;20210;-61
2022/01/24 13:46:56;;;;;;;0.70;0.70;;;;;;;;;;4973422;28;20213;-61
2022/01/24 13:49:23;;;;;;;0.70;0.70;;;;;;;;;;4973078;28;20767;-61
2022/01/24 13:51:54;;;;;;;0.70;0.70;;;;;;;;;;4973214;28;20237;-61
2022/01/24 13:54:22;;;;;;;0.90;0.60;;;;;;;;;;4973019;28;20226;-60
2022/01/24 13:56:50;;;;;;;0.93;0.93;;;;;;;;;;4975934;28;20293;-62
2022/01/24 13:59:18;;;;;;;1.37;0.50;;;;;;;;;;4992311;28;20699;-62
2022/01/24 14:01:56;;;;;;;0.90;0.90;;;;;;;;;;4991390;28;20214;-61
2022/01/24 14:04:28;;;;;;;0.80;0.80;;;;;;;;;;4981919;28;20221;-61
2022/01/24 14:06:58;;;;;;;1.87;0.70;;;;;;;;;;4980963;28;20742;-61
2022/01/24 14:09:32;;;;;;;1.00;1.00;;;;;;;;;;4989610;28;20214;-61
2022/01/24 14:11:59;;;;;;;0.80;0.77;;;;;;;;;;4990368;28;20275;-62
2022/01/24 14:14:37;;;;;;;0.70;0.70;;;;;;;;;;4990522;28;20232;-61
2022/01/24 14:17:17;;;;;;;4.43;1.33;;;;;;;;;;4991627;28;20213;-61
2022/01/24 14:19:44;;;;;;;1.67;1.10;;;;;;;;;;4989393;28;20220;-62
2022/01/24 14:22:14;;;;;;;1.98;0.90;;;;;;;;;;4976217;28;20460;-61
2022/01/24 14:24:44;;;;;;;0.60;0.60;;;;;;;;;;4986569;28;20280;-75
2022/01/24 14:27:12;;;;;;;0.80;0.80;;;;;;;;;;4973666;28;20539;-61
2022/01/24 14:29:39;;;;;;;1.00;1.00;;;;;;;;;;4973765;28;20208;-60
2022/01/24 14:32:13;;;;;;;0.88;0.88;;;;;;;;;;4986598;28;20488;-61
2022/01/24 14:34:40;;;;;;;0.70;0.70;;;;;;;;;;4986409;28;20454;-61
2022/01/24 14:37:07;;;;;;;0.40;0.40;;;;;;;;;;4978001;28;20264;-61
2022/01/24 14:39:43;;;;;;;1.10;0.70;;;;;;;;;;4971047;28;20218;-61
2022/01/24 14:42:13;;;;;;;0.67;0.67;;;;;;;;;;4966859;28;20225;-61
2022/01/24 14:44:54;;;;;;;0.70;0.70;;;;;;;;;;4970440;28;20696;-61
2022/01/24 14:47:22;;;;;;;0.47;0.47;;;;;;;;;;4980103;28;20202;-61
2022/01/24 14:49:49;;;;;;;0.80;0.80;;;;;;;;;;4967545;28;20816;-61
2022/01/24 14:52:19;;;;;;;1.30;0.67;;;;;;;;;;4974825;28;20209;-61
2022/01/24 14:54:47;;;;;;;0.63;0.63;;;;;;;;;;4987122;28;20260;-61
2022/01/24 14:57:16;;;;;;;1.10;1.10;;;;;;;;;;4985782;28;20217;-60
2022/01/24 14:59:44;;;;;;;0.50;0.50;;;;;;;;;;4987302;28;20244;-60
2022/01/24 15:02:11;;;;;;;0.70;0.70;;;;;;;;;;4986850;28;20301;-61
2022/01/24 15:04:38;;;;;;;5.57;1.03;;;;;;;;;;4978627;28;20202;-60
2022/01/24 15:07:05;;;;;;;1.10;1.07;;;;;;;;;;4968110;28;20218;-61
2022/01/24 15:09:34;;;;;;;3.60;1.23;;;;;;;;;;4968012;28;20277;-61
2022/01/24 15:12:06;;;;;;;0.50;0.50;;;;;;;;;;4967497;28;20214;-61
2022/01/24 15:14:36;;;;;;;0.63;0.60;;;;;;;;;;4970804;28;20280;-62
2022/01/24 15:17:19;;;;;;;0.60;0.60;;;;;;;;;;4987403;28;20771;-61
2022/01/24 15:25:25;;;;;;;0.87;0.87;;;;;;;;;;4986509;28;20549;-61
2022/01/24 15:27:54;;;;;;;0.50;0.50;;;;;;;;;;4986702;28;20224;-61
2022/01/24 15:30:22;;;;;;;0.70;0.70;;;;;;;;;;4986647;28;20753;-61
2022/01/24 15:32:49;;;;;;;1.00;0.90;;;;;;;;;;4985607;28;20260;-61
2022/01/24 15:35:16;;;;;;;0.87;0.70;;;;;;;;;;4986550;28;20246;-60
2022/01/24 15:37:44;;;;;;;0.77;0.77;;;;;;;;;;4986036;28;20217;-61
2022/01/24 15:40:11;;;;;;;0.90;0.90;;;;;;;;;;4985676;28;20217;-61
2022/01/24 15:42:44;;;;;;;0.80;0.80;;;;;;;;;;4966892;28;20592;-61
2022/01/24 15:48:04;;;;;;;0.80;0.80;;;;;;;;;;4966826;28;21005;-61
2022/01/24 15:50:31;;;;;;;2.83;1.47;;;;;;;;;;4966693;28;20235;-61
2022/01/24 15:52:59;;;;;;;0.80;0.80;;;;;;;;;;4966811;28;20230;-61
2022/01/24 15:55:28;;;;;;;3.23;0.83;;;;;;;;;;4966570;28;20881;-62
2022/01/24 15:57:57;;;;;;;0.60;0.60;;;;;;;;;;4978234;28;20224;-61
2022/01/24 16:00:27;;;;;;;0.50;0.50;;;;;;;;;;4983577;28;20754;-60
2022/01/24 16:02:55;;;;;;;1.70;0.90;;;;;;;;;;4985988;28;20210;-62
2022/01/24 16:05:23;;;;;;;1.77;1.00;;;;;;;;;;4975374;28;20210;-62
2022/01/24 16:07:52;;;;;;;0.97;0.77;;;;;;;;;;4974269;28;20288;-63
2022/01/24 16:10:20;;;;;;;0.77;0.77;;;;;;;;;;4985874;28;20221;-63
2022/01/24 16:12:47;;;;;;;0.77;0.77;;;;;;;;;;4985764;28;20217;-62
2022/01/24 16:15:15;;;;;;;0.93;0.80;;;;;;;;;;4983842;28;20236;-60
2022/01/24 16:17:43;;;;;;;1.30;1.20;;;;;;;;;;4968582;28;20224;-63
2022/01/24 16:20:21;;;;;;;1.83;1.13;;;;;;;;;;4979549;28;20213;-62
2022/01/24 16:25:34;;;;;;;1.37;0.67;;;;;;;;;;4980798;28;20205;-61
2022/01/24 16:28:02;;;;;;;1.80;0.80;;;;;;;;;;4985348;28;20217;-61
2022/01/24 16:30:30;;;;;;;0.60;0.60;;;;;;;;;;4971479;28;20213;-60